createdAt,value
2023-04-02T00:00:57.641Z,60.51
2023-04-02T00:01:57.729Z,60.53
2023-04-02T00:02:57.876Z,60.42
2023-04-02T00:03:57.777Z,60.34
2023-04-02T00:04:57.780Z,60.15
2023-04-02T00:05:57.864Z,60.45
2023-04-02T00:06:57.867Z,60.35
2023-04-02T00:07:57.872Z,60.40
2023-04-02T00:08:57.916Z,60.42
2023-04-02T00:09:57.929Z,60.67
2023-04-02T00:10:57.912Z,60.41
2023-04-02T00:11:57.982Z,60.56
2023-04-02T00:12:57.986Z,60.80
2023-04-02T00:13:58.016Z,60.65
2023-04-02T00:14:58.099Z,60.50
2023-04-02T00:15:58.206Z,60.81
2023-04-02T00:16:58.095Z,60.88
2023-04-02T00:17:58.177Z,60.65
2023-04-02T00:18:58.227Z,60.69
2023-04-02T00:19:58.287Z,60.42
2023-04-02T00:20:58.221Z,60.50
2023-04-02T00:21:58.229Z,60.43
2023-04-02T00:22:58.266Z,60.22
2023-04-02T00:23:58.316Z,60.39
2023-04-02T00:24:58.361Z,60.31
2023-04-02T00:25:58.372Z,60.49
2023-04-02T00:26:58.400Z,60.61
2023-04-02T00:27:58.412Z,60.38
2023-04-02T00:28:58.459Z,60.26
2023-04-02T00:29:58.472Z,60.54
2023-04-02T00:30:58.495Z,60.61
2023-04-02T00:31:58.547Z,60.70
2023-04-02T00:32:58.579Z,60.67
2023-04-02T00:33:58.620Z,60.58
2023-04-02T00:34:58.620Z,60.46
2023-04-02T00:35:58.686Z,60.50
2023-04-02T00:36:58.678Z,60.79
2023-04-02T00:37:58.706Z,60.78
2023-04-02T00:38:58.704Z,60.47
2023-04-02T00:39:58.753Z,60.60
2023-04-02T00:40:58.801Z,60.63
2023-04-02T00:41:58.843Z,60.83
2023-04-02T00:42:58.848Z,60.83
2023-04-02T00:43:58.831Z,60.76
2023-04-02T00:44:58.891Z,60.63
2023-04-02T00:45:58.940Z,60.80
2023-04-02T00:46:58.946Z,60.80
2023-04-02T00:47:59.020Z,61.19
2023-04-02T00:48:59.010Z,61.45
2023-04-02T00:49:59.081Z,61.51
2023-04-02T00:50:59.119Z,61.44
2023-04-02T00:51:59.146Z,61.62
2023-04-02T00:52:59.176Z,61.36
2023-04-02T00:53:59.187Z,61.00
2023-04-02T00:54:59.196Z,61.60
2023-04-02T00:55:59.232Z,61.61
2023-04-02T00:56:59.305Z,61.80
2023-04-02T00:57:59.287Z,61.71
2023-04-02T00:58:59.316Z,61.85
2023-04-02T00:59:59.381Z,61.95
2023-04-02T01:00:59.401Z,62.15
2023-04-02T01:01:59.392Z,61.77
2023-04-02T01:02:59.470Z,61.91
2023-04-02T01:03:59.468Z,61.94
2023-04-02T01:04:59.515Z,61.97
2023-04-02T01:05:59.560Z,62.02
2023-04-02T01:06:59.616Z,61.90
2023-04-02T01:07:59.635Z,62.12
2023-04-02T01:08:59.649Z,62.22
2023-04-02T01:09:59.676Z,62.11
2023-04-02T01:10:59.729Z,61.86
2023-04-02T01:11:59.766Z,61.96
2023-04-02T01:12:59.799Z,61.97
2023-04-02T01:13:59.814Z,62.12
2023-04-02T01:14:59.846Z,61.34
2023-04-02T01:15:59.928Z,61.54
2023-04-02T01:16:59.917Z,62.00
2023-04-02T01:17:59.979Z,61.98
2023-04-02T01:18:59.949Z,61.81
2023-04-02T01:19:59.949Z,61.87
2023-04-02T01:21:00.031Z,61.77
2023-04-02T01:22:00.011Z,61.65
2023-04-02T01:23:00.037Z,61.92
2023-04-02T01:24:00.048Z,62.04
2023-04-02T01:25:00.119Z,62.00
2023-04-02T01:26:00.093Z,61.62
2023-04-02T01:27:00.146Z,61.45
2023-04-02T01:28:00.139Z,61.67
2023-04-02T01:29:00.184Z,61.92
2023-04-02T01:30:00.188Z,62.13
2023-04-02T01:31:00.286Z,62.26
2023-04-02T01:32:00.249Z,62.65
2023-04-02T01:33:00.356Z,63.09
2023-04-02T01:34:00.346Z,63.25
2023-04-02T01:35:00.392Z,63.19
2023-04-02T01:36:00.478Z,62.95
2023-04-02T01:37:00.444Z,62.96
2023-04-02T01:38:00.450Z,62.91
2023-04-02T01:39:00.487Z,62.71
2023-04-02T01:40:00.490Z,62.94
2023-04-02T01:41:00.513Z,63.02
2023-04-02T01:42:00.540Z,63.00
2023-04-02T01:43:00.535Z,63.03
2023-04-02T01:44:00.579Z,63.01
2023-04-02T01:45:00.581Z,62.87
2023-04-02T01:46:00.649Z,63.00
2023-04-02T01:47:00.635Z,63.00
2023-04-02T01:48:00.729Z,62.79
2023-04-02T01:49:00.712Z,62.90
2023-04-02T01:50:00.757Z,62.95
2023-04-02T01:51:00.742Z,62.70
2023-04-02T01:52:00.834Z,62.89
2023-04-02T01:53:00.835Z,62.91
2023-04-02T01:54:00.895Z,63.03
2023-04-02T01:55:00.891Z,63.17
2023-04-02T01:56:00.942Z,63.30
2023-04-02T01:57:00.975Z,63.20
2023-04-02T01:58:00.974Z,63.35
2023-04-02T01:59:01.077Z,63.52
2023-04-02T02:00:01.051Z,63.43
2023-04-02T02:01:01.113Z,63.45
2023-04-02T02:02:01.138Z,63.47
2023-04-02T02:03:01.173Z,63.44
2023-04-02T02:04:01.106Z,63.28
2023-04-02T02:05:01.136Z,63.28
2023-04-02T02:06:01.179Z,63.15
2023-04-02T02:07:01.586Z,63.20
2023-04-02T02:08:01.267Z,63.05
2023-04-02T02:09:01.300Z,62.93
2023-04-02T02:10:01.353Z,63.01
2023-04-02T02:11:01.391Z,63.05
2023-04-02T02:12:01.409Z,63.05
2023-04-02T02:13:01.433Z,62.98
2023-04-02T02:14:01.479Z,63.18
2023-04-02T02:15:01.536Z,63.25
2023-04-02T02:16:01.541Z,63.24
2023-04-02T02:17:01.544Z,63.10
2023-04-02T02:18:01.578Z,63.17
2023-04-02T02:19:01.612Z,63.17
2023-04-02T02:20:01.633Z,63.18
2023-04-02T02:21:01.626Z,63.40
2023-04-02T02:22:01.660Z,63.46
2023-04-02T02:23:01.674Z,63.79
2023-04-02T02:24:01.707Z,64.06
2023-04-02T02:25:01.743Z,63.88
2023-04-02T02:26:01.774Z,64.06
2023-04-02T02:27:01.829Z,64.38
2023-04-02T02:28:01.855Z,64.44
2023-04-02T02:29:01.906Z,64.43
2023-04-02T02:30:01.922Z,64.61
2023-04-02T02:31:01.948Z,64.53
2023-04-02T02:32:01.986Z,64.55
2023-04-02T02:33:02.084Z,64.72
2023-04-02T02:34:02.039Z,64.87
2023-04-02T02:35:02.082Z,64.85
2023-04-02T02:36:02.160Z,64.70
2023-04-02T02:37:02.135Z,64.85
2023-04-02T02:38:02.162Z,65.00
2023-04-02T02:39:02.212Z,65.15
2023-04-02T02:40:02.252Z,65.35
2023-04-02T02:41:02.230Z,65.50
2023-04-02T02:42:02.269Z,65.81
2023-04-02T02:43:02.319Z,65.94
2023-04-02T02:44:02.331Z,65.84
2023-04-02T02:45:02.410Z,65.64
2023-04-02T02:46:02.467Z,65.58
2023-04-02T02:47:02.585Z,65.43
2023-04-02T02:48:02.493Z,65.37
2023-04-02T02:49:02.495Z,65.34
2023-04-02T02:50:02.489Z,65.27
2023-04-02T02:51:02.543Z,64.98
2023-04-02T02:52:02.540Z,64.88
2023-04-02T02:53:02.613Z,64.80
2023-04-02T02:54:02.638Z,64.70
2023-04-02T02:55:02.701Z,64.78
2023-04-02T02:56:02.764Z,64.82
2023-04-02T02:57:02.749Z,64.89
2023-04-02T02:58:02.772Z,64.69
2023-04-02T02:59:02.780Z,64.42
2023-04-02T03:00:02.787Z,64.22
2023-04-02T03:01:02.827Z,64.12
2023-04-02T03:02:02.842Z,64.08
2023-04-02T03:03:02.916Z,64.19
2023-04-02T03:04:03.053Z,64.25
2023-04-02T03:05:02.951Z,64.30
2023-04-02T03:06:02.999Z,64.37
2023-04-02T03:07:03.024Z,64.52
2023-04-02T03:08:03.069Z,64.57
2023-04-02T03:09:03.081Z,64.73
2023-04-02T03:10:03.111Z,64.95
2023-04-02T03:11:03.100Z,65.19
2023-04-02T03:12:03.153Z,65.45
2023-04-02T03:13:03.182Z,65.42
2023-04-02T03:14:03.225Z,65.42
2023-04-02T03:15:03.248Z,65.20
2023-04-02T03:16:03.383Z,65.04
2023-04-02T03:17:03.373Z,64.83
2023-04-02T03:18:03.421Z,64.97
2023-04-02T03:19:03.456Z,64.75
2023-04-02T03:20:03.486Z,64.83
2023-04-02T03:21:03.551Z,64.96
2023-04-02T03:22:03.562Z,65.05
2023-04-02T03:23:03.576Z,65.17
2023-04-02T03:24:03.591Z,65.03
2023-04-02T03:25:03.615Z,65.10
2023-04-02T03:26:03.655Z,65.06
2023-04-02T03:27:03.716Z,65.24
2023-04-02T03:28:03.741Z,65.27
2023-04-02T03:29:03.782Z,65.17
2023-04-02T03:30:03.780Z,65.06
2023-04-02T03:31:03.882Z,65.02
2023-04-02T03:32:03.789Z,64.71
2023-04-02T03:33:03.855Z,64.69
2023-04-02T03:34:03.921Z,64.60
2023-04-02T03:35:03.920Z,64.74
2023-04-02T03:36:03.962Z,64.70
2023-04-02T03:37:03.977Z,64.50
2023-04-02T03:38:03.985Z,64.50
2023-04-02T03:39:04.043Z,64.71
2023-04-02T03:40:04.040Z,64.99
2023-04-02T03:41:04.085Z,65.30
2023-04-02T03:42:04.122Z,65.70
2023-04-02T03:43:04.181Z,65.93
2023-04-02T03:44:04.154Z,65.92
2023-04-02T03:45:04.182Z,66.02
2023-04-02T03:46:04.292Z,66.00
2023-04-02T03:47:04.303Z,65.84
2023-04-02T03:48:04.324Z,65.62
2023-04-02T03:49:04.305Z,65.62
2023-04-02T03:50:04.351Z,65.63
2023-04-02T03:51:04.380Z,65.60
2023-04-02T03:52:04.394Z,65.53
2023-04-02T03:53:04.441Z,65.54
2023-04-02T03:54:04.458Z,65.65
2023-04-02T03:55:04.496Z,65.73
2023-04-02T03:56:04.490Z,65.89
2023-04-02T03:57:04.562Z,65.95
2023-04-02T03:58:04.533Z,66.01
2023-04-02T03:59:04.577Z,66.21
2023-04-02T04:00:04.631Z,66.28
2023-04-02T04:01:04.626Z,66.27
2023-04-02T04:02:04.716Z,66.23
2023-04-02T04:03:04.769Z,66.29
2023-04-02T04:04:04.773Z,66.07
2023-04-02T04:05:04.750Z,66.02
2023-04-02T04:06:04.745Z,66.03
2023-04-02T04:07:04.771Z,66.13
2023-04-02T04:08:04.774Z,66.18
2023-04-02T04:09:04.838Z,66.18
2023-04-02T04:10:04.985Z,66.31
2023-04-02T04:11:04.943Z,66.28
2023-04-02T04:12:04.936Z,66.40
2023-04-02T04:13:04.970Z,66.48
2023-04-02T04:14:05.041Z,66.43
2023-04-02T04:15:05.092Z,66.46
2023-04-02T04:16:05.220Z,66.50
2023-04-02T04:17:05.068Z,66.56
2023-04-02T04:18:05.117Z,66.66
2023-04-02T04:19:05.230Z,66.86
2023-04-02T04:20:05.177Z,66.83
2023-04-02T04:21:05.239Z,66.83
2023-04-02T04:22:05.248Z,66.90
2023-04-02T04:23:05.312Z,66.99
2023-04-02T04:24:05.311Z,67.02
2023-04-02T04:25:05.384Z,67.24
2023-04-02T04:26:05.425Z,67.15
2023-04-02T04:27:05.454Z,67.00
2023-04-02T04:28:05.703Z,66.78
2023-04-02T04:29:05.556Z,66.86
2023-04-02T04:30:05.576Z,66.75
2023-04-02T04:31:05.650Z,66.46
2023-04-02T04:32:05.641Z,66.59
2023-04-02T04:33:05.781Z,66.62
2023-04-02T04:34:05.667Z,66.56
2023-04-02T04:35:05.715Z,66.62
2023-04-02T04:36:05.750Z,66.60
2023-04-02T04:37:05.743Z,66.65
2023-04-02T04:38:05.768Z,66.59
2023-04-02T04:39:05.820Z,66.76
2023-04-02T04:40:05.828Z,66.81
2023-04-02T04:41:05.878Z,66.83
2023-04-02T04:42:05.903Z,66.89
2023-04-02T04:43:05.976Z,66.92
2023-04-02T04:44:05.979Z,66.87
2023-04-02T04:45:05.976Z,66.96
2023-04-02T04:46:06.018Z,67.02
2023-04-02T04:47:06.018Z,66.99
2023-04-02T04:48:06.083Z,67.02
2023-04-02T04:49:06.073Z,67.04
2023-04-02T04:50:06.169Z,66.97
2023-04-02T04:51:06.163Z,67.18
2023-04-02T04:52:06.203Z,67.28
2023-04-02T04:53:06.211Z,67.31
2023-04-02T04:54:06.262Z,67.40
2023-04-02T04:55:06.268Z,67.44
2023-04-02T04:56:18.756Z,67.48
2023-04-02T04:57:07.346Z,67.48
2023-04-02T04:58:06.302Z,67.40
2023-04-02T04:59:06.381Z,67.43
2023-04-02T05:00:06.312Z,67.53
2023-04-02T05:01:06.339Z,67.36
2023-04-02T05:02:06.306Z,67.55
2023-04-02T05:03:06.290Z,67.72
2023-04-02T05:04:06.260Z,67.79
2023-04-02T05:05:06.244Z,67.80
2023-04-02T05:06:06.260Z,67.89
2023-04-02T05:07:06.269Z,68.03
2023-04-02T05:08:06.284Z,68.13
2023-04-02T05:09:06.228Z,68.20
2023-04-02T05:10:06.202Z,68.28
2023-04-02T05:11:06.263Z,68.38
2023-04-02T05:12:06.275Z,68.36
2023-04-02T05:13:06.331Z,68.31
2023-04-02T05:14:06.356Z,68.28
2023-04-02T05:15:06.397Z,68.19
2023-04-02T05:16:06.441Z,68.08
2023-04-02T05:17:06.418Z,68.02
2023-04-02T05:18:06.509Z,68.00
2023-04-02T05:19:06.496Z,68.21
2023-04-02T05:20:06.519Z,68.38
2023-04-02T05:21:06.608Z,68.30
2023-04-02T05:22:06.568Z,68.30
2023-04-02T05:23:06.591Z,68.36
2023-04-02T05:24:06.645Z,68.44
2023-04-02T05:25:06.685Z,68.40
2023-04-02T05:26:06.737Z,68.43
2023-04-02T05:27:06.792Z,68.55
2023-04-02T05:28:06.814Z,68.55
2023-04-02T05:29:06.794Z,68.02
2023-04-02T05:30:06.862Z,67.85
2023-04-02T05:31:06.930Z,67.73
2023-04-02T05:32:06.911Z,67.47
2023-04-02T05:33:06.957Z,67.28
2023-04-02T05:34:06.937Z,67.22
2023-04-02T05:35:07.001Z,67.08
2023-04-02T05:36:07.050Z,66.97
2023-04-02T05:37:07.306Z,67.09
2023-04-02T05:38:07.117Z,67.00
2023-04-02T05:39:07.157Z,66.96
2023-04-02T05:40:07.186Z,66.86
2023-04-02T05:41:07.200Z,66.85
2023-04-02T05:42:07.261Z,66.75
2023-04-02T05:43:07.302Z,66.71
2023-04-02T05:44:07.352Z,66.63
2023-04-02T05:45:07.323Z,66.46
2023-04-02T05:46:07.388Z,66.24
2023-04-02T05:47:07.386Z,66.22
2023-04-02T05:48:07.460Z,66.19
2023-04-02T05:49:07.414Z,66.06
2023-04-02T05:50:07.451Z,66.07
2023-04-02T05:51:07.428Z,66.05
2023-04-02T05:52:07.471Z,66.11
2023-04-02T05:53:07.490Z,66.23
2023-04-02T05:54:07.545Z,66.22
2023-04-02T05:55:07.546Z,66.15
2023-04-02T05:56:07.635Z,66.15
2023-04-02T05:57:07.784Z,66.20
2023-04-02T05:59:08.660Z,66.20
2023-04-02T06:00:07.642Z,66.24
2023-04-02T06:01:07.685Z,66.24
2023-04-02T06:02:07.729Z,66.26
2023-04-02T06:03:07.880Z,66.26
2023-04-02T06:04:07.665Z,66.14
2023-04-02T06:05:07.624Z,66.12
2023-04-02T06:06:07.595Z,65.96
2023-04-02T06:07:07.624Z,65.86
2023-04-02T06:08:07.627Z,65.74
2023-04-02T06:09:07.593Z,65.91
2023-04-02T06:10:07.611Z,65.93
2023-04-02T06:11:07.589Z,65.90
2023-04-02T06:12:07.581Z,65.73
2023-04-02T06:13:07.580Z,65.62
2023-04-02T06:14:07.614Z,65.57
2023-04-02T06:15:07.606Z,65.78
2023-04-02T06:16:07.668Z,65.94
2023-04-02T06:17:07.707Z,66.13
2023-04-02T06:18:07.763Z,66.27
2023-04-02T06:19:07.746Z,66.26
2023-04-02T06:20:07.776Z,66.23
2023-04-02T06:21:07.820Z,66.12
2023-04-02T06:22:07.836Z,66.05
2023-04-02T06:23:07.838Z,65.99
2023-04-02T06:24:07.915Z,65.87
2023-04-02T06:25:07.933Z,65.49
2023-04-02T06:26:07.971Z,65.46
2023-04-02T06:27:07.991Z,65.34
2023-04-02T06:28:08.041Z,65.12
2023-04-02T06:29:08.098Z,65.17
2023-04-02T06:30:08.102Z,65.09
2023-04-02T06:31:08.138Z,65.10
2023-04-02T06:32:08.173Z,65.01
2023-04-02T06:33:08.180Z,64.78
2023-04-02T06:34:08.237Z,64.52
2023-04-02T06:35:08.217Z,64.28
2023-04-02T06:36:08.319Z,63.93
2023-04-02T06:37:08.321Z,63.70
2023-04-02T06:38:08.355Z,63.70
2023-04-02T06:39:08.390Z,63.59
2023-04-02T06:40:08.426Z,63.58
2023-04-02T06:41:08.492Z,63.51
2023-04-02T06:42:08.486Z,63.20
2023-04-02T06:43:08.551Z,63.30
2023-04-02T06:44:08.546Z,63.33
2023-04-02T06:45:08.564Z,63.49
2023-04-02T06:46:08.726Z,63.30
2023-04-02T06:47:08.600Z,62.95
2023-04-02T06:48:08.722Z,62.86
2023-04-02T06:49:08.664Z,63.02
2023-04-02T06:50:08.700Z,63.07
2023-04-02T06:51:08.739Z,62.64
2023-04-02T06:52:08.724Z,62.48
2023-04-02T06:53:08.741Z,62.38
2023-04-02T06:54:08.780Z,62.29
2023-04-02T06:55:08.881Z,62.21
2023-04-02T06:56:08.831Z,61.77
2023-04-02T06:57:08.882Z,62.10
2023-04-02T06:58:08.900Z,62.06
2023-04-02T06:59:08.936Z,61.74
2023-04-02T07:00:08.912Z,61.69
2023-04-02T07:01:09.003Z,61.76
2023-04-02T07:02:08.967Z,61.79
2023-04-02T07:03:09.068Z,61.45
2023-04-02T07:04:09.054Z,60.81
2023-04-02T07:05:09.269Z,60.68
2023-04-02T07:06:09.133Z,60.57
2023-04-02T07:07:09.143Z,60.43
2023-04-02T07:08:09.152Z,60.41
2023-04-02T07:09:09.186Z,59.96
2023-04-02T07:10:09.293Z,59.60
2023-04-02T07:11:09.265Z,59.23
2023-04-02T07:12:09.341Z,58.88
2023-04-02T07:13:09.344Z,58.76
2023-04-02T07:14:09.370Z,58.37
2023-04-02T07:15:09.387Z,58.03
2023-04-02T07:16:09.542Z,57.71
2023-04-02T07:17:09.489Z,57.25
2023-04-02T07:18:09.586Z,56.95
2023-04-02T07:19:09.559Z,56.69
2023-04-02T07:20:09.562Z,56.41
2023-04-02T07:21:09.598Z,56.40
2023-04-02T07:22:09.642Z,56.09
2023-04-02T07:23:09.690Z,56.07
2023-04-02T07:24:09.694Z,55.67
2023-04-02T07:25:09.720Z,55.59
2023-04-02T07:26:09.764Z,55.45
2023-04-02T07:27:09.801Z,55.50
2023-04-02T07:28:09.763Z,55.28
2023-04-02T07:29:09.852Z,55.23
2023-04-02T07:30:09.853Z,54.95
2023-04-02T07:31:09.916Z,54.87
2023-04-02T07:32:09.907Z,55.09
2023-04-02T07:33:09.990Z,54.68
2023-04-02T07:34:10.033Z,54.22
2023-04-02T07:35:10.059Z,54.00
2023-04-02T07:36:10.089Z,53.79
2023-04-02T07:37:10.106Z,53.50
2023-04-02T07:38:10.138Z,53.20
2023-04-02T07:39:10.187Z,52.96
2023-04-02T07:40:10.215Z,52.98
2023-04-02T07:41:10.265Z,53.05
2023-04-02T07:42:10.273Z,53.25
2023-04-02T07:43:10.320Z,53.05
2023-04-02T07:44:10.346Z,52.81
2023-04-02T07:45:10.355Z,52.93
2023-04-02T07:46:10.458Z,53.00
2023-04-02T07:47:10.466Z,52.90
2023-04-02T07:48:10.473Z,53.03
2023-04-02T07:49:10.497Z,52.73
2023-04-02T07:50:10.498Z,52.24
2023-04-02T07:51:10.535Z,51.94
2023-04-02T07:52:10.559Z,51.87
2023-04-02T07:53:10.573Z,51.59
2023-04-02T07:54:10.613Z,50.86
2023-04-02T07:55:10.632Z,50.94
2023-04-02T07:56:10.687Z,50.34
2023-04-02T07:57:10.748Z,50.42
2023-04-02T07:58:10.898Z,49.88
2023-04-02T07:59:10.944Z,48.76
2023-04-02T08:00:10.964Z,48.64
2023-04-02T08:01:11.022Z,48.71
2023-04-02T08:02:11.075Z,48.27
2023-04-02T08:03:11.113Z,48.42
2023-04-02T08:04:11.113Z,48.20
2023-04-02T08:05:11.049Z,48.12
2023-04-02T08:06:11.095Z,48.44
2023-04-02T08:07:11.120Z,48.41
2023-04-02T08:08:11.145Z,48.33
2023-04-02T08:09:11.225Z,48.49
2023-04-02T08:10:11.240Z,48.72
2023-04-02T08:11:11.278Z,48.50
2023-04-02T08:12:11.294Z,48.30
2023-04-02T08:13:11.341Z,47.53
2023-04-02T08:14:11.356Z,47.57
2023-04-02T08:15:11.408Z,47.46
2023-04-02T08:16:11.534Z,47.47
2023-04-02T08:17:11.576Z,46.98
2023-04-02T08:18:11.519Z,46.98
2023-04-02T08:19:11.544Z,46.64
2023-04-02T08:20:11.558Z,45.99
2023-04-02T08:21:11.613Z,45.54
2023-04-02T08:22:11.647Z,45.46
2023-04-02T08:23:11.669Z,45.51
2023-04-02T08:24:11.727Z,45.17
2023-04-02T08:25:11.776Z,45.45
2023-04-02T08:26:11.817Z,45.57
2023-04-02T08:27:11.863Z,45.99
2023-04-02T08:28:11.891Z,46.41
2023-04-02T08:29:11.934Z,46.74
2023-04-02T08:30:11.977Z,46.74
2023-04-02T08:31:12.057Z,46.76
2023-04-02T08:32:12.091Z,45.78
2023-04-02T08:33:12.131Z,45.45
2023-04-02T08:34:12.102Z,45.24
2023-04-02T08:35:12.113Z,44.35
2023-04-02T08:36:12.146Z,44.40
2023-04-02T08:37:12.164Z,43.82
2023-04-02T08:38:12.196Z,43.61
2023-04-02T08:39:12.242Z,43.54
2023-04-02T08:40:12.236Z,43.23
2023-04-02T08:41:12.243Z,43.05
2023-04-02T08:42:12.283Z,43.19
2023-04-02T08:43:12.321Z,42.89
2023-04-02T08:44:12.309Z,42.41
2023-04-02T08:45:24.207Z,42.32
2023-04-02T08:46:13.375Z,41.71
2023-04-02T08:47:12.383Z,42.07
2023-04-02T08:48:12.394Z,41.32
2023-04-02T08:49:12.365Z,41.77
2023-04-02T08:50:12.365Z,42.08
2023-04-02T08:51:12.335Z,41.17
2023-04-02T08:52:12.347Z,40.72
2023-04-02T08:53:12.312Z,39.98
2023-04-02T08:54:12.339Z,39.56
2023-04-02T08:55:12.343Z,39.97
2023-04-02T08:56:12.313Z,40.30
2023-04-02T08:57:12.345Z,40.29
2023-04-02T08:58:12.294Z,40.24
2023-04-02T08:59:12.252Z,40.71
2023-04-02T09:00:12.254Z,41.43
2023-04-02T09:01:12.260Z,40.89
2023-04-02T09:02:12.274Z,40.07
2023-04-02T09:03:12.299Z,39.79
2023-04-02T09:04:12.359Z,40.09
2023-04-02T09:05:12.626Z,40.14
2023-04-02T09:06:13.388Z,40.81
2023-04-02T09:07:12.506Z,40.43
2023-04-02T09:08:12.553Z,39.39
2023-04-02T09:09:12.627Z,39.33
2023-04-02T09:10:12.633Z,38.86
2023-04-02T09:11:12.671Z,39.33
2023-04-02T09:12:12.722Z,40.21
2023-04-02T09:13:12.745Z,40.46
2023-04-02T09:14:12.758Z,41.02
2023-04-02T09:15:12.771Z,40.74
2023-04-02T09:16:12.849Z,40.21
2023-04-02T09:17:12.823Z,39.28
2023-04-02T09:18:12.904Z,39.16
2023-04-02T09:19:12.893Z,39.03
2023-04-02T09:20:12.935Z,38.10
2023-04-02T09:21:12.976Z,37.94
2023-04-02T09:22:12.965Z,37.22
2023-04-02T09:23:13.018Z,36.89
2023-04-02T09:24:13.078Z,36.69
2023-04-02T09:25:13.081Z,36.09
2023-04-02T09:26:13.133Z,35.08
2023-04-02T09:27:13.175Z,34.89
2023-04-02T09:28:13.189Z,34.95
2023-04-02T09:29:13.305Z,34.59
2023-04-02T09:30:13.275Z,34.73
2023-04-02T09:31:13.396Z,34.20
2023-04-02T09:32:13.326Z,33.75
2023-04-02T09:33:13.341Z,34.03
2023-04-02T09:34:13.352Z,33.01
2023-04-02T09:35:24.783Z,33.36
2023-04-02T09:36:16.071Z,33.49
2023-04-02T09:37:13.370Z,33.97
2023-04-02T09:38:13.371Z,34.54
2023-04-02T09:39:13.366Z,34.63
2023-04-02T09:40:13.325Z,34.26
2023-04-02T09:41:13.334Z,34.36
2023-04-02T09:42:13.345Z,33.80
2023-04-02T09:43:13.349Z,33.71
2023-04-02T09:44:13.334Z,33.94
2023-04-02T09:45:13.312Z,32.97
2023-04-02T09:46:13.340Z,33.71
2023-04-02T09:47:13.313Z,32.83
2023-04-02T09:48:13.355Z,32.38
2023-04-02T09:49:13.288Z,31.91
2023-04-02T09:50:13.299Z,31.95
2023-04-02T09:51:13.310Z,32.47
2023-04-02T09:52:13.283Z,31.72
2023-04-02T09:53:13.264Z,31.71
2023-04-02T09:54:13.250Z,32.04
2023-04-02T09:55:13.227Z,32.12
2023-04-02T09:56:13.244Z,32.48
2023-04-02T09:57:13.292Z,32.53
2023-04-02T09:58:13.249Z,32.48
2023-04-02T09:59:13.231Z,32.90
2023-04-02T10:00:25.384Z,33.35
2023-04-02T10:01:14.230Z,33.33
2023-04-02T10:02:13.189Z,33.03
2023-04-02T10:03:13.177Z,32.80
2023-04-02T10:04:13.258Z,33.30
2023-04-02T10:05:13.716Z,32.84
2023-04-02T10:06:13.193Z,32.93
2023-04-02T10:07:13.202Z,32.62
2023-04-02T10:08:13.205Z,32.26
2023-04-02T10:09:13.124Z,32.67
2023-04-02T10:10:13.231Z,33.32
2023-04-02T10:11:13.153Z,33.45
2023-04-02T10:12:13.152Z,33.46
2023-04-02T10:13:13.207Z,33.57
2023-04-02T10:14:13.240Z,33.73
2023-04-02T10:15:13.240Z,33.81
2023-04-02T10:16:13.358Z,33.81
2023-04-02T10:17:13.502Z,34.29
2023-04-02T10:18:13.308Z,34.84
2023-04-02T10:19:13.327Z,34.79
2023-04-02T10:20:13.434Z,34.74
2023-04-02T10:21:13.352Z,34.76
2023-04-02T10:22:13.402Z,34.92
2023-04-02T10:23:13.445Z,34.81
2023-04-02T10:24:13.450Z,35.33
2023-04-02T10:25:13.468Z,35.81
2023-04-02T10:26:13.474Z,35.58
2023-04-02T10:27:13.568Z,35.30
2023-04-02T10:28:13.549Z,35.36
2023-04-02T10:29:13.580Z,34.71
2023-04-02T10:30:13.594Z,34.80
2023-04-02T10:31:13.670Z,34.43
2023-04-02T10:32:13.660Z,34.92
2023-04-02T10:33:13.690Z,34.45
2023-04-02T10:34:13.724Z,34.52
2023-04-02T10:35:13.752Z,34.61
2023-04-02T10:36:13.823Z,34.68
2023-04-02T10:37:13.848Z,34.71
2023-04-02T10:38:13.799Z,34.69
2023-04-02T10:39:13.856Z,34.16
2023-04-02T10:40:13.884Z,33.59
2023-04-02T10:41:13.900Z,33.33
2023-04-02T10:42:13.883Z,33.05
2023-04-02T10:43:13.940Z,32.87
2023-04-02T10:44:20.234Z,33.40
2023-04-02T10:45:14.922Z,33.23
2023-04-02T10:46:13.941Z,33.15
2023-04-02T10:47:13.927Z,33.33
2023-04-02T10:48:13.944Z,33.36
2023-04-02T10:49:13.928Z,33.32
2023-04-02T10:50:13.883Z,33.49
2023-04-02T10:51:14.191Z,33.20
2023-04-02T10:52:13.890Z,33.45
2023-04-02T10:53:13.844Z,33.14
2023-04-02T10:54:13.917Z,32.55
2023-04-02T10:55:13.859Z,33.67
2023-04-02T10:56:13.843Z,33.62
2023-04-02T10:57:13.887Z,32.86
2023-04-02T10:58:13.887Z,33.22
2023-04-02T10:59:13.903Z,32.98
2023-04-02T11:00:13.932Z,33.10
2023-04-02T11:01:13.965Z,33.88
2023-04-02T11:02:14.024Z,33.71
2023-04-02T11:03:14.150Z,32.93
2023-04-02T11:04:14.342Z,32.93
2023-04-02T11:05:14.165Z,33.20
2023-04-02T11:06:14.125Z,33.37
2023-04-02T11:07:14.988Z,33.03
2023-04-02T11:08:15.176Z,32.89
2023-04-02T11:09:14.199Z,32.84
2023-04-02T11:10:14.238Z,32.75
2023-04-02T11:11:14.315Z,32.44
2023-04-02T11:12:14.323Z,32.94
2023-04-02T11:13:14.338Z,32.71
2023-04-02T11:14:14.410Z,32.94
2023-04-02T11:15:14.421Z,33.34
2023-04-02T11:16:14.528Z,33.21
2023-04-02T11:17:14.453Z,32.99
2023-04-02T11:18:14.466Z,31.91
2023-04-02T11:19:14.531Z,31.18
2023-04-02T11:20:14.554Z,32.31
2023-04-02T11:21:14.582Z,31.73
2023-04-02T11:22:14.649Z,31.86
2023-04-02T11:23:14.655Z,32.43
2023-04-02T11:24:14.701Z,32.56
2023-04-02T11:25:14.742Z,32.38
2023-04-02T11:26:14.786Z,32.68
2023-04-02T11:27:14.822Z,33.06
2023-04-02T11:28:14.828Z,33.17
2023-04-02T11:29:14.855Z,33.52
2023-04-02T11:30:14.878Z,33.71
2023-04-02T11:31:15.013Z,33.16
2023-04-02T11:32:15.001Z,33.28
2023-04-02T11:33:18.660Z,33.20
2023-04-02T11:34:16.022Z,32.40
2023-04-02T11:35:15.016Z,32.44
2023-04-02T11:36:15.076Z,32.82
2023-04-02T11:37:14.990Z,32.79
2023-04-02T11:38:15.002Z,32.86
2023-04-02T11:39:17.419Z,33.25
2023-04-02T11:40:15.157Z,33.10
2023-04-02T11:41:15.233Z,32.39
2023-04-02T11:42:15.232Z,32.38
2023-04-02T11:43:15.245Z,32.82
2023-04-02T11:44:15.323Z,32.94
2023-04-02T11:45:15.347Z,32.89
2023-04-02T11:46:15.406Z,32.84
2023-04-02T11:47:15.394Z,32.45
2023-04-02T11:48:15.466Z,32.21
2023-04-02T11:49:15.473Z,32.56
2023-04-02T11:50:15.500Z,32.64
2023-04-02T11:51:15.492Z,32.75
2023-04-02T11:52:15.544Z,32.69
2023-04-02T11:53:15.543Z,32.31
2023-04-02T11:54:15.645Z,32.43
2023-04-02T11:55:15.626Z,32.52
2023-04-02T11:56:15.666Z,32.52
2023-04-02T11:57:15.798Z,32.35
2023-04-02T11:58:15.747Z,32.52
2023-04-02T11:59:15.763Z,32.24
2023-04-02T12:00:17.968Z,32.28
2023-04-02T12:01:15.860Z,32.51
2023-04-02T12:02:15.891Z,32.83
2023-04-02T12:03:15.997Z,33.08
2023-04-02T12:04:15.914Z,33.33
2023-04-02T12:05:15.962Z,33.45
2023-04-02T12:06:15.995Z,33.30
2023-04-02T12:07:16.038Z,33.69
2023-04-02T12:08:16.049Z,32.96
2023-04-02T12:09:16.123Z,32.50
2023-04-02T12:10:16.112Z,32.63
2023-04-02T12:11:16.133Z,32.76
2023-04-02T12:12:16.159Z,32.67
2023-04-02T12:13:16.217Z,32.88
2023-04-02T12:14:16.245Z,32.59
2023-04-02T12:15:16.289Z,32.92
2023-04-02T12:16:16.332Z,32.48
2023-04-02T12:17:16.449Z,32.15
2023-04-02T12:18:16.384Z,32.57
2023-04-02T12:19:16.415Z,32.33
2023-04-02T12:20:16.435Z,32.59
2023-04-02T12:21:16.496Z,32.65
2023-04-02T12:22:16.556Z,32.50
2023-04-02T12:23:16.613Z,32.16
2023-04-02T12:24:16.616Z,32.15
2023-04-02T12:25:16.617Z,32.36
2023-04-02T12:26:16.692Z,32.50
2023-04-02T12:27:16.712Z,32.46
2023-04-02T12:28:16.745Z,31.85
2023-04-02T12:29:16.788Z,31.85
2023-04-02T12:30:16.789Z,31.90
2023-04-02T12:31:16.944Z,32.46
2023-04-02T12:32:16.870Z,32.72
2023-04-02T12:33:16.923Z,32.93
2023-04-02T12:34:16.952Z,32.44
2023-04-02T12:35:16.941Z,32.35
2023-04-02T12:36:17.083Z,32.70
2023-04-02T12:37:17.019Z,32.99
2023-04-02T12:38:17.042Z,32.95
2023-04-02T12:39:17.093Z,32.73
2023-04-02T12:40:17.149Z,32.69
2023-04-02T12:41:17.151Z,32.52
2023-04-02T12:42:17.213Z,32.98
2023-04-02T12:43:17.215Z,32.90
2023-04-02T12:44:17.264Z,32.09
2023-04-02T12:45:17.230Z,31.95
2023-04-02T12:46:17.304Z,32.55
2023-04-02T12:47:17.309Z,32.54
2023-04-02T12:48:17.312Z,32.39
2023-04-02T12:49:17.321Z,33.13
2023-04-02T12:50:17.346Z,33.07
2023-04-02T12:51:17.719Z,33.24
2023-04-02T12:52:17.377Z,33.73
2023-04-02T12:53:17.440Z,33.05
2023-04-02T12:54:17.473Z,33.41